sensor_id;sensor_type;location;lat;lon;timestamp;P1;durP1;ratioP1;P2;durP2;ratioP2
78646;SDS011;67961;43.460;3.762;2023-03-19T00:00:07;18.83;;;9.18;;
78646;SDS011;67961;43.460;3.762;2023-03-19T00:02:33;11.48;;;6.63;;
78646;SDS011;67961;43.460;3.762;2023-03-19T00:05:00;14.98;;;7.50;;
78646;SDS011;67961;43.460;3.762;2023-03-19T00:07:25;15.15;;;7.30;;
78646;SDS011;67961;43.460;3.762;2023-03-19T00:09:51;13.73;;;6.03;;
78646;SDS011;67961;43.460;3.762;2023-03-19T00:12:17;16.48;;;6.55;;
78646;SDS011;67961;43.460;3.762;2023-03-19T00:14:42;12.45;;;6.43;;
78646;SDS011;67961;43.460;3.762;2023-03-19T00:17:08;13.95;;;6.32;;
78646;SDS011;67961;43.460;3.762;2023-03-19T00:19:36;21.10;;;8.00;;
78646;SDS011;67961;43.460;3.762;2023-03-19T00:22:02;14.13;;;6.47;;
78646;SDS011;67961;43.460;3.762;2023-03-19T00:24:28;12.02;;;6.97;;
78646;SDS011;67961;43.460;3.762;2023-03-19T00:26:54;13.38;;;6.57;;
78646;SDS011;67961;43.460;3.762;2023-03-19T00:29:20;15.05;;;6.97;;
78646;SDS011;67961;43.460;3.762;2023-03-19T00:31:47;17.20;;;7.43;;
78646;SDS011;67961;43.460;3.762;2023-03-19T00:34:13;13.48;;;8.43;;
78646;SDS011;67961;43.460;3.762;2023-03-19T00:36:42;14.40;;;8.85;;
78646;SDS011;67961;43.460;3.762;2023-03-19T00:39:08;23.17;;;9.88;;
78646;SDS011;67961;43.460;3.762;2023-03-19T00:41:33;15.18;;;8.88;;
78646;SDS011;67961;43.460;3.762;2023-03-19T00:43:59;12.63;;;7.22;;
78646;SDS011;67961;43.460;3.762;2023-03-19T00:46:25;16.63;;;8.77;;
78646;SDS011;67961;43.460;3.762;2023-03-19T00:48:51;13.55;;;7.78;;
78646;SDS011;67961;43.460;3.762;2023-03-19T00:51:19;17.27;;;8.55;;
78646;SDS011;67961;43.460;3.762;2023-03-19T00:53:46;15.85;;;7.78;;
78646;SDS011;67961;43.460;3.762;2023-03-19T00:56:12;17.35;;;6.97;;
78646;SDS011;67961;43.460;3.762;2023-03-19T00:58:42;18.88;;;7.00;;
78646;SDS011;67961;43.460;3.762;2023-03-19T01:01:09;10.63;;;6.43;;
78646;SDS011;67961;43.460;3.762;2023-03-19T01:03:36;12.95;;;6.88;;
78646;SDS011;67961;43.460;3.762;2023-03-19T01:06:02;9.82;;;5.93;;
78646;SDS011;67961;43.460;3.762;2023-03-19T01:08:29;11.48;;;5.88;;
78646;SDS011;67961;43.460;3.762;2023-03-19T01:10:54;8.07;;;4.88;;
78646;SDS011;67961;43.460;3.762;2023-03-19T01:13:20;7.18;;;3.58;;
78646;SDS011;67961;43.460;3.762;2023-03-19T01:15:50;12.55;;;3.97;;
78646;SDS011;67961;43.460;3.762;2023-03-19T01:18:17;12.32;;;3.63;;
78646;SDS011;67961;43.460;3.762;2023-03-19T01:20:43;8.30;;;3.92;;
78646;SDS011;67961;43.460;3.762;2023-03-19T01:23:08;10.73;;;3.53;;
78646;SDS011;67961;43.460;3.762;2023-03-19T01:25:34;6.68;;;3.50;;
78646;SDS011;67961;43.460;3.762;2023-03-19T01:28:00;8.27;;;3.45;;
78646;SDS011;67961;43.460;3.762;2023-03-19T01:30:26;11.52;;;3.72;;
78646;SDS011;67961;43.460;3.762;2023-03-19T01:32:52;10.48;;;4.30;;
78646;SDS011;67961;43.460;3.762;2023-03-19T01:35:18;9.88;;;5.35;;
78646;SDS011;67961;43.460;3.762;2023-03-19T01:37:44;14.25;;;6.40;;
78646;SDS011;67961;43.460;3.762;2023-03-19T01:40:11;15.55;;;7.30;;
78646;SDS011;67961;43.460;3.762;2023-03-19T01:42:57;14.02;;;6.55;;
78646;SDS011;67961;43.460;3.762;2023-03-19T01:45:41;13.98;;;7.30;;
78646;SDS011;67961;43.460;3.762;2023-03-19T01:51:03;12.30;;;5.97;;
78646;SDS011;67961;43.460;3.762;2023-03-19T01:53:31;14.27;;;6.93;;
78646;SDS011;67961;43.460;3.762;2023-03-19T01:56:01;16.33;;;7.30;;
78646;SDS011;67961;43.460;3.762;2023-03-19T01:58:31;16.07;;;7.50;;
78646;SDS011;67961;43.460;3.762;2023-03-19T02:00:57;15.52;;;7.45;;
78646;SDS011;67961;43.460;3.762;2023-03-19T02:03:23;17.90;;;6.80;;
78646;SDS011;67961;43.460;3.762;2023-03-19T02:05:49;17.13;;;6.75;;
78646;SDS011;67961;43.460;3.762;2023-03-19T02:08:16;10.05;;;5.15;;
78646;SDS011;67961;43.460;3.762;2023-03-19T02:10:45;10.00;;;4.30;;
78646;SDS011;67961;43.460;3.762;2023-03-19T02:13:12;13.32;;;4.15;;
78646;SDS011;67961;43.460;3.762;2023-03-19T02:15:38;10.48;;;3.85;;
78646;SDS011;67961;43.460;3.762;2023-03-19T02:18:04;14.40;;;3.83;;
78646;SDS011;67961;43.460;3.762;2023-03-19T02:20:33;18.98;;;4.00;;
78646;SDS011;67961;43.460;3.762;2023-03-19T02:26:05;12.15;;;3.60;;
78646;SDS011;67961;43.460;3.762;2023-03-19T02:28:33;12.90;;;3.50;;
78646;SDS011;67961;43.460;3.762;2023-03-19T02:31:03;11.30;;;3.47;;
78646;SDS011;67961;43.460;3.762;2023-03-19T02:33:30;8.52;;;3.03;;
78646;SDS011;67961;43.460;3.762;2023-03-19T02:35:55;7.55;;;3.15;;
78646;SDS011;67961;43.460;3.762;2023-03-19T02:38:23;9.63;;;2.83;;
78646;SDS011;67961;43.460;3.762;2023-03-19T02:40:56;5.78;;;2.72;;
78646;SDS011;67961;43.460;3.762;2023-03-19T02:43:29;8.90;;;3.20;;
78646;SDS011;67961;43.460;3.762;2023-03-19T02:45:59;8.00;;;3.05;;
78646;SDS011;67961;43.460;3.762;2023-03-19T02:48:30;11.27;;;2.97;;
78646;SDS011;67961;43.460;3.762;2023-03-19T02:50:56;8.77;;;3.20;;
78646;SDS011;67961;43.460;3.762;2023-03-19T02:53:22;8.02;;;3.38;;
78646;SDS011;67961;43.460;3.762;2023-03-19T02:55:48;11.13;;;3.20;;
78646;SDS011;67961;43.460;3.762;2023-03-19T02:58:14;9.45;;;3.13;;
78646;SDS011;67961;43.460;3.762;2023-03-19T03:00:40;6.90;;;2.60;;
78646;SDS011;67961;43.460;3.762;2023-03-19T03:03:06;9.50;;;3.50;;
78646;SDS011;67961;43.460;3.762;2023-03-19T03:05:33;10.40;;;3.67;;
78646;SDS011;67961;43.460;3.762;2023-03-19T03:07:59;6.80;;;2.83;;
78646;SDS011;67961;43.460;3.762;2023-03-19T03:10:24;7.68;;;2.97;;
78646;SDS011;67961;43.460;3.762;2023-03-19T03:12:51;8.23;;;3.13;;
78646;SDS011;67961;43.460;3.762;2023-03-19T03:15:16;6.50;;;3.00;;
78646;SDS011;67961;43.460;3.762;2023-03-19T03:17:43;10.73;;;2.83;;
78646;SDS011;67961;43.460;3.762;2023-03-19T03:20:10;10.52;;;3.40;;
78646;SDS011;67961;43.460;3.762;2023-03-19T03:22:38;8.82;;;3.10;;
78646;SDS011;67961;43.460;3.762;2023-03-19T03:25:04;11.63;;;3.55;;
78646;SDS011;67961;43.460;3.762;2023-03-19T03:27:30;12.32;;;3.28;;
78646;SDS011;67961;43.460;3.762;2023-03-19T03:29:56;14.52;;;4.55;;
78646;SDS011;67961;43.460;3.762;2023-03-19T03:32:22;12.80;;;3.80;;
78646;SDS011;67961;43.460;3.762;2023-03-19T03:34:48;10.30;;;3.20;;
78646;SDS011;67961;43.460;3.762;2023-03-19T03:37:14;15.00;;;4.88;;
78646;SDS011;67961;43.460;3.762;2023-03-19T03:39:40;13.68;;;3.97;;
78646;SDS011;67961;43.460;3.762;2023-03-19T03:42:06;12.80;;;3.20;;
78646;SDS011;67961;43.460;3.762;2023-03-19T03:44:32;11.95;;;3.38;;
78646;SDS011;67961;43.460;3.762;2023-03-19T03:46:57;13.95;;;3.78;;
78646;SDS011;67961;43.460;3.762;2023-03-19T03:49:23;13.68;;;3.17;;
78646;SDS011;67961;43.460;3.762;2023-03-19T03:51:49;14.90;;;3.53;;
78646;SDS011;67961;43.460;3.762;2023-03-19T03:54:15;14.00;;;3.03;;
78646;SDS011;67961;43.460;3.762;2023-03-19T03:56:41;8.93;;;3.47;;
78646;SDS011;67961;43.460;3.762;2023-03-19T03:59:07;14.20;;;3.58;;
78646;SDS011;67961;43.460;3.762;2023-03-19T04:01:33;14.20;;;3.25;;
78646;SDS011;67961;43.460;3.762;2023-03-19T04:03:59;11.65;;;3.35;;
78646;SDS011;67961;43.460;3.762;2023-03-19T04:06:25;16.98;;;4.50;;
78646;SDS011;67961;43.460;3.762;2023-03-19T04:08:52;12.77;;;3.42;;
78646;SDS011;67961;43.460;3.762;2023-03-19T04:11:18;15.88;;;3.60;;
78646;SDS011;67961;43.460;3.762;2023-03-19T04:13:44;12.95;;;3.45;;
78646;SDS011;67961;43.460;3.762;2023-03-19T04:16:10;11.63;;;3.38;;
78646;SDS011;67961;43.460;3.762;2023-03-19T04:18:37;10.63;;;3.33;;
78646;SDS011;67961;43.460;3.762;2023-03-19T04:21:03;15.50;;;4.20;;
78646;SDS011;67961;43.460;3.762;2023-03-19T04:23:29;14.70;;;3.97;;
78646;SDS011;67961;43.460;3.762;2023-03-19T04:25:59;13.40;;;3.53;;
78646;SDS011;67961;43.460;3.762;2023-03-19T04:28:25;18.15;;;3.75;;
78646;SDS011;67961;43.460;3.762;2023-03-19T04:30:51;10.48;;;3.22;;
78646;SDS011;67961;43.460;3.762;2023-03-19T04:33:17;17.60;;;4.13;;
78646;SDS011;67961;43.460;3.762;2023-03-19T04:35:43;14.60;;;3.45;;
78646;SDS011;67961;43.460;3.762;2023-03-19T04:38:08;9.90;;;3.08;;
78646;SDS011;67961;43.460;3.762;2023-03-19T04:40:34;11.93;;;3.22;;
78646;SDS011;67961;43.460;3.762;2023-03-19T04:43:00;8.50;;;2.50;;
78646;SDS011;67961;43.460;3.762;2023-03-19T04:45:26;10.75;;;3.38;;
78646;SDS011;67961;43.460;3.762;2023-03-19T04:47:52;10.68;;;3.50;;
78646;SDS011;67961;43.460;3.762;2023-03-19T04:50:18;10.68;;;3.38;;
78646;SDS011;67961;43.460;3.762;2023-03-19T04:52:44;13.48;;;3.17;;
78646;SDS011;67961;43.460;3.762;2023-03-19T04:55:09;11.02;;;3.38;;
78646;SDS011;67961;43.460;3.762;2023-03-19T04:57:35;7.20;;;2.53;;
78646;SDS011;67961;43.460;3.762;2023-03-19T05:00:01;8.23;;;2.72;;
78646;SDS011;67961;43.460;3.762;2023-03-19T05:02:27;9.45;;;3.83;;
78646;SDS011;67961;43.460;3.762;2023-03-19T05:04:52;6.13;;;2.90;;
78646;SDS011;67961;43.460;3.762;2023-03-19T05:07:18;12.27;;;4.00;;
78646;SDS011;67961;43.460;3.762;2023-03-19T05:09:44;7.85;;;2.80;;
78646;SDS011;67961;43.460;3.762;2023-03-19T05:12:10;7.53;;;2.75;;
78646;SDS011;67961;43.460;3.762;2023-03-19T05:14:36;10.30;;;3.28;;
78646;SDS011;67961;43.460;3.762;2023-03-19T05:17:02;10.07;;;3.35;;
78646;SDS011;67961;43.460;3.762;2023-03-19T05:19:28;9.10;;;2.80;;
78646;SDS011;67961;43.460;3.762;2023-03-19T05:21:54;8.45;;;3.65;;
78646;SDS011;67961;43.460;3.762;2023-03-19T05:24:21;7.97;;;2.88;;
78646;SDS011;67961;43.460;3.762;2023-03-19T05:26:50;10.38;;;3.45;;
78646;SDS011;67961;43.460;3.762;2023-03-19T05:29:16;8.50;;;3.22;;
78646;SDS011;67961;43.460;3.762;2023-03-19T05:31:41;8.77;;;3.08;;
78646;SDS011;67961;43.460;3.762;2023-03-19T05:34:07;8.05;;;2.60;;
78646;SDS011;67961;43.460;3.762;2023-03-19T05:36:33;10.52;;;2.83;;
78646;SDS011;67961;43.460;3.762;2023-03-19T05:38:59;8.88;;;3.17;;
78646;SDS011;67961;43.460;3.762;2023-03-19T05:41:25;14.25;;;3.03;;
78646;SDS011;67961;43.460;3.762;2023-03-19T05:43:50;10.25;;;2.90;;
78646;SDS011;67961;43.460;3.762;2023-03-19T05:46:16;11.52;;;3.65;;
78646;SDS011;67961;43.460;3.762;2023-03-19T05:48:42;8.52;;;2.78;;
78646;SDS011;67961;43.460;3.762;2023-03-19T05:51:07;9.38;;;3.03;;
78646;SDS011;67961;43.460;3.762;2023-03-19T05:53:33;15.13;;;4.28;;
78646;SDS011;67961;43.460;3.762;2023-03-19T05:55:59;11.70;;;4.38;;
78646;SDS011;67961;43.460;3.762;2023-03-19T05:58:24;6.63;;;2.50;;
78646;SDS011;67961;43.460;3.762;2023-03-19T06:00:52;8.18;;;2.78;;
78646;SDS011;67961;43.460;3.762;2023-03-19T06:03:20;12.00;;;3.40;;
78646;SDS011;67961;43.460;3.762;2023-03-19T06:05:49;9.55;;;3.78;;
78646;SDS011;67961;43.460;3.762;2023-03-19T06:08:15;11.55;;;3.90;;
78646;SDS011;67961;43.460;3.762;2023-03-19T06:10:41;11.82;;;3.72;;
78646;SDS011;67961;43.460;3.762;2023-03-19T06:13:07;13.70;;;3.10;;
78646;SDS011;67961;43.460;3.762;2023-03-19T06:15:33;8.77;;;3.45;;
78646;SDS011;67961;43.460;3.762;2023-03-19T06:17:58;9.88;;;3.05;;
78646;SDS011;67961;43.460;3.762;2023-03-19T06:20:24;6.50;;;2.70;;
78646;SDS011;67961;43.460;3.762;2023-03-19T06:22:50;10.32;;;3.22;;
78646;SDS011;67961;43.460;3.762;2023-03-19T06:25:16;12.15;;;4.43;;
78646;SDS011;67961;43.460;3.762;2023-03-19T06:27:42;12.75;;;3.42;;
78646;SDS011;67961;43.460;3.762;2023-03-19T06:30:08;12.18;;;4.70;;
78646;SDS011;67961;43.460;3.762;2023-03-19T06:32:34;10.60;;;3.13;;
78646;SDS011;67961;43.460;3.762;2023-03-19T06:35:00;9.45;;;3.00;;
78646;SDS011;67961;43.460;3.762;2023-03-19T06:37:26;12.00;;;3.70;;
78646;SDS011;67961;43.460;3.762;2023-03-19T06:39:52;10.73;;;3.30;;
78646;SDS011;67961;43.460;3.762;2023-03-19T06:42:19;13.38;;;4.07;;
78646;SDS011;67961;43.460;3.762;2023-03-19T06:44:46;10.32;;;3.75;;
78646;SDS011;67961;43.460;3.762;2023-03-19T06:47:12;7.97;;;3.35;;
78646;SDS011;67961;43.460;3.762;2023-03-19T06:49:38;10.60;;;3.72;;
78646;SDS011;67961;43.460;3.762;2023-03-19T06:52:05;10.32;;;3.65;;
78646;SDS011;67961;43.460;3.762;2023-03-19T06:54:31;11.05;;;4.35;;
78646;SDS011;67961;43.460;3.762;2023-03-19T06:56:56;8.90;;;3.95;;
78646;SDS011;67961;43.460;3.762;2023-03-19T06:59:23;9.35;;;4.45;;
78646;SDS011;67961;43.460;3.762;2023-03-19T07:01:49;7.68;;;4.03;;
78646;SDS011;67961;43.460;3.762;2023-03-19T07:04:15;9.40;;;4.45;;
78646;SDS011;67961;43.460;3.762;2023-03-19T07:06:41;9.23;;;4.40;;
78646;SDS011;67961;43.460;3.762;2023-03-19T07:09:06;11.15;;;5.03;;
78646;SDS011;67961;43.460;3.762;2023-03-19T07:11:32;11.25;;;4.82;;
78646;SDS011;67961;43.460;3.762;2023-03-19T07:13:58;8.43;;;4.68;;
78646;SDS011;67961;43.460;3.762;2023-03-19T07:16:23;11.07;;;5.07;;
78646;SDS011;67961;43.460;3.762;2023-03-19T07:18:49;11.10;;;5.97;;
78646;SDS011;67961;43.460;3.762;2023-03-19T07:21:15;9.57;;;6.03;;
78646;SDS011;67961;43.460;3.762;2023-03-19T07:23:40;8.35;;;4.60;;
78646;SDS011;67961;43.460;3.762;2023-03-19T07:26:06;12.70;;;5.68;;
78646;SDS011;67961;43.460;3.762;2023-03-19T07:28:32;16.25;;;6.10;;
78646;SDS011;67961;43.460;3.762;2023-03-19T07:30:57;7.50;;;4.18;;
78646;SDS011;67961;43.460;3.762;2023-03-19T07:33:23;8.73;;;4.00;;
78646;SDS011;67961;43.460;3.762;2023-03-19T07:35:48;8.48;;;4.40;;
78646;SDS011;67961;43.460;3.762;2023-03-19T07:38:14;10.80;;;5.00;;
78646;SDS011;67961;43.460;3.762;2023-03-19T07:40:40;9.40;;;4.40;;
78646;SDS011;67961;43.460;3.762;2023-03-19T07:43:06;9.40;;;4.30;;
78646;SDS011;67961;43.460;3.762;2023-03-19T07:45:32;8.60;;;3.75;;
78646;SDS011;67961;43.460;3.762;2023-03-19T07:47:58;10.20;;;4.53;;
78646;SDS011;67961;43.460;3.762;2023-03-19T07:50:27;13.70;;;3.85;;
78646;SDS011;67961;43.460;3.762;2023-03-19T07:52:54;9.15;;;3.53;;
78646;SDS011;67961;43.460;3.762;2023-03-19T07:55:20;10.38;;;5.03;;
78646;SDS011;67961;43.460;3.762;2023-03-19T07:57:46;12.25;;;4.05;;
78646;SDS011;67961;43.460;3.762;2023-03-19T08:00:12;10.88;;;4.15;;
78646;SDS011;67961;43.460;3.762;2023-03-19T08:02:38;8.75;;;3.75;;
78646;SDS011;67961;43.460;3.762;2023-03-19T08:05:04;7.10;;;3.47;;
78646;SDS011;67961;43.460;3.762;2023-03-19T08:07:30;10.68;;;3.88;;
78646;SDS011;67961;43.460;3.762;2023-03-19T08:09:56;13.80;;;4.43;;
78646;SDS011;67961;43.460;3.762;2023-03-19T08:12:25;11.63;;;5.07;;
78646;SDS011;67961;43.460;3.762;2023-03-19T08:14:51;13.07;;;5.80;;
78646;SDS011;67961;43.460;3.762;2023-03-19T08:17:16;10.40;;;4.60;;
78646;SDS011;67961;43.460;3.762;2023-03-19T08:19:42;11.90;;;6.38;;
78646;SDS011;67961;43.460;3.762;2023-03-19T08:22:08;8.20;;;5.22;;
78646;SDS011;67961;43.460;3.762;2023-03-19T08:24:34;10.02;;;5.78;;
78646;SDS011;67961;43.460;3.762;2023-03-19T08:27:00;9.48;;;5.35;;
78646;SDS011;67961;43.460;3.762;2023-03-19T08:29:26;11.65;;;5.32;;
78646;SDS011;67961;43.460;3.762;2023-03-19T08:31:52;7.95;;;4.65;;
78646;SDS011;67961;43.460;3.762;2023-03-19T08:34:18;9.27;;;5.15;;
78646;SDS011;67961;43.460;3.762;2023-03-19T08:36:44;11.43;;;5.28;;
78646;SDS011;67961;43.460;3.762;2023-03-19T08:39:10;6.60;;;4.20;;
78646;SDS011;67961;43.460;3.762;2023-03-19T08:41:36;8.40;;;4.20;;
78646;SDS011;67961;43.460;3.762;2023-03-19T08:44:02;7.25;;;4.75;;
78646;SDS011;67961;43.460;3.762;2023-03-19T08:46:27;8.90;;;4.25;;
78646;SDS011;67961;43.460;3.762;2023-03-19T08:48:53;8.00;;;3.58;;
78646;SDS011;67961;43.460;3.762;2023-03-19T08:51:19;9.25;;;4.78;;
78646;SDS011;67961;43.460;3.762;2023-03-19T08:53:45;8.93;;;3.88;;
78646;SDS011;67961;43.460;3.762;2023-03-19T08:56:11;7.55;;;4.05;;
78646;SDS011;67961;43.460;3.762;2023-03-19T08:58:36;7.38;;;2.92;;
78646;SDS011;67961;43.460;3.762;2023-03-19T09:01:10;5.93;;;3.03;;
78646;SDS011;67961;43.460;3.762;2023-03-19T09:03:38;6.40;;;3.20;;
78646;SDS011;67961;43.460;3.762;2023-03-19T09:06:07;8.80;;;3.65;;
78646;SDS011;67961;43.460;3.762;2023-03-19T09:08:34;6.68;;;3.53;;
78646;SDS011;67961;43.460;3.762;2023-03-19T09:11:01;9.68;;;4.22;;
78646;SDS011;67961;43.460;3.762;2023-03-19T09:13:28;7.90;;;3.53;;
78646;SDS011;67961;43.460;3.762;2023-03-19T09:15:54;9.93;;;3.97;;
78646;SDS011;67961;43.460;3.762;2023-03-19T09:18:20;7.13;;;3.47;;
78646;SDS011;67961;43.460;3.762;2023-03-19T09:20:49;6.65;;;3.00;;
78646;SDS011;67961;43.460;3.762;2023-03-19T09:23:15;7.75;;;2.85;;
78646;SDS011;67961;43.460;3.762;2023-03-19T09:25:41;7.18;;;3.03;;
78646;SDS011;67961;43.460;3.762;2023-03-19T09:28:07;7.50;;;2.67;;
78646;SDS011;67961;43.460;3.762;2023-03-19T09:30:33;6.32;;;3.17;;
78646;SDS011;67961;43.460;3.762;2023-03-19T09:32:58;8.20;;;3.35;;
78646;SDS011;67961;43.460;3.762;2023-03-19T09:35:25;7.95;;;3.13;;
78646;SDS011;67961;43.460;3.762;2023-03-19T09:37:55;7.72;;;2.67;;
78646;SDS011;67961;43.460;3.762;2023-03-19T09:40:24;6.35;;;2.72;;
78646;SDS011;67961;43.460;3.762;2023-03-19T09:42:59;11.02;;;3.80;;
78646;SDS011;67961;43.460;3.762;2023-03-19T09:45:30;6.00;;;2.60;;
78646;SDS011;67961;43.460;3.762;2023-03-19T09:47:57;5.25;;;3.00;;
78646;SDS011;67961;43.460;3.762;2023-03-19T09:50:29;5.05;;;3.05;;
78646;SDS011;67961;43.460;3.762;2023-03-19T09:55:56;6.43;;;3.03;;
78646;SDS011;67961;43.460;3.762;2023-03-19T09:58:29;9.98;;;5.00;;
78646;SDS011;67961;43.460;3.762;2023-03-19T10:00:56;32.38;;;14.10;;
78646;SDS011;67961;43.460;3.762;2023-03-19T10:14:22;16.85;;;7.50;;
78646;SDS011;67961;43.460;3.762;2023-03-19T10:16:53;10.38;;;4.65;;
78646;SDS011;67961;43.460;3.762;2023-03-19T10:19:26;6.75;;;3.25;;
78646;SDS011;67961;43.460;3.762;2023-03-19T10:22:40;9.27;;;3.85;;
78646;SDS011;67961;43.460;3.762;2023-03-19T10:25:19;10.02;;;3.20;;
78646;SDS011;67961;43.460;3.762;2023-03-19T10:27:58;5.82;;;2.42;;
78646;SDS011;67961;43.460;3.762;2023-03-19T10:30:29;7.05;;;2.67;;
78646;SDS011;67961;43.460;3.762;2023-03-19T10:35:44;6.07;;;2.40;;
78646;SDS011;67961;43.460;3.762;2023-03-19T10:38:18;5.35;;;2.30;;
78646;SDS011;67961;43.460;3.762;2023-03-19T10:43:26;5.10;;;2.05;;
78646;SDS011;67961;43.460;3.762;2023-03-19T10:45:56;7.50;;;2.30;;
78646;SDS011;67961;43.460;3.762;2023-03-19T10:48:24;14.43;;;2.58;;
78646;SDS011;67961;43.460;3.762;2023-03-19T10:58:31;7.50;;;2.45;;
78646;SDS011;67961;43.460;3.762;2023-03-19T11:03:36;5.63;;;2.40;;
78646;SDS011;67961;43.460;3.762;2023-03-19T11:08:54;10.73;;;3.42;;
78646;SDS011;67961;43.460;3.762;2023-03-19T11:13:57;6.68;;;2.30;;
78646;SDS011;67961;43.460;3.762;2023-03-19T11:16:29;5.43;;;2.78;;
78646;SDS011;67961;43.460;3.762;2023-03-19T11:18:55;8.48;;;3.10;;
78646;SDS011;67961;43.460;3.762;2023-03-19T11:21:27;6.97;;;2.90;;
78646;SDS011;67961;43.460;3.762;2023-03-19T11:24:00;6.10;;;3.10;;
78646;SDS011;67961;43.460;3.762;2023-03-19T11:26:27;9.90;;;3.60;;
78646;SDS011;67961;43.460;3.762;2023-03-19T11:28:57;5.75;;;3.40;;
78646;SDS011;67961;43.460;3.762;2023-03-19T11:31:40;8.50;;;2.65;;
78646;SDS011;67961;43.460;3.762;2023-03-19T11:38:09;6.40;;;2.50;;
78646;SDS011;67961;43.460;3.762;2023-03-19T11:51:39;3.28;;;1.95;;
78646;SDS011;67961;43.460;3.762;2023-03-19T12:02:37;5.75;;;2.30;;
78646;SDS011;67961;43.460;3.762;2023-03-19T12:13:03;6.60;;;2.72;;
78646;SDS011;67961;43.460;3.762;2023-03-19T12:29:03;8.23;;;3.08;;
78646;SDS011;67961;43.460;3.762;2023-03-19T12:34:41;10.75;;;3.38;;
78646;SDS011;67961;43.460;3.762;2023-03-19T12:37:18;11.82;;;3.22;;
78646;SDS011;67961;43.460;3.762;2023-03-19T12:42:39;7.47;;;3.10;;
78646;SDS011;67961;43.460;3.762;2023-03-19T12:45:17;6.95;;;2.92;;
78646;SDS011;67961;43.460;3.762;2023-03-19T12:47:49;7.22;;;3.42;;
78646;SDS011;67961;43.460;3.762;2023-03-19T12:50:21;13.18;;;3.15;;
78646;SDS011;67961;43.460;3.762;2023-03-19T12:52:49;6.28;;;2.78;;
78646;SDS011;67961;43.460;3.762;2023-03-19T12:57:50;6.22;;;2.17;;
78646;SDS011;67961;43.460;3.762;2023-03-19T13:03:05;6.85;;;2.33;;
78646;SDS011;67961;43.460;3.762;2023-03-19T13:10:59;7.35;;;3.10;;
78646;SDS011;67961;43.460;3.762;2023-03-19T13:19:03;7.75;;;2.88;;
78646;SDS011;67961;43.460;3.762;2023-03-19T13:21:35;9.63;;;2.78;;
78646;SDS011;67961;43.460;3.762;2023-03-19T13:24:12;10.18;;;3.15;;
78646;SDS011;67961;43.460;3.762;2023-03-19T13:26:54;7.85;;;3.17;;
78646;SDS011;67961;43.460;3.762;2023-03-19T13:29:29;7.68;;;2.75;;
78646;SDS011;67961;43.460;3.762;2023-03-19T13:31:59;5.47;;;2.55;;
78646;SDS011;67961;43.460;3.762;2023-03-19T13:34:31;7.45;;;2.30;;
78646;SDS011;67961;43.460;3.762;2023-03-19T13:37:07;8.30;;;2.72;;
78646;SDS011;67961;43.460;3.762;2023-03-19T13:39:44;5.75;;;2.65;;
78646;SDS011;67961;43.460;3.762;2023-03-19T13:48:04;4.63;;;1.58;;
78646;SDS011;67961;43.460;3.762;2023-03-19T13:54:06;7.32;;;2.42;;
78646;SDS011;67961;43.460;3.762;2023-03-19T13:59:35;4.45;;;2.35;;
78646;SDS011;67961;43.460;3.762;2023-03-19T14:02:03;3.22;;;1.95;;
78646;SDS011;67961;43.460;3.762;2023-03-19T14:04:57;5.20;;;2.10;;
78646;SDS011;67961;43.460;3.762;2023-03-19T14:07:27;4.95;;;2.35;;
78646;SDS011;67961;43.460;3.762;2023-03-19T14:15:03;5.47;;;2.28;;
78646;SDS011;67961;43.460;3.762;2023-03-19T14:17:59;8.23;;;2.53;;
78646;SDS011;67961;43.460;3.762;2023-03-19T14:20:30;6.57;;;2.65;;
78646;SDS011;67961;43.460;3.762;2023-03-19T14:33:57;4.05;;;2.38;;
78646;SDS011;67961;43.460;3.762;2023-03-19T14:36:55;3.63;;;1.95;;
78646;SDS011;67961;43.460;3.762;2023-03-19T14:39:42;4.35;;;2.35;;
78646;SDS011;67961;43.460;3.762;2023-03-19T14:48:11;5.13;;;1.90;;
78646;SDS011;67961;43.460;3.762;2023-03-19T14:53:29;8.07;;;2.92;;
78646;SDS011;67961;43.460;3.762;2023-03-19T14:56:10;3.90;;;2.47;;
78646;SDS011;67961;43.460;3.762;2023-03-19T14:58:48;7.20;;;2.67;;
78646;SDS011;67961;43.460;3.762;2023-03-19T15:01:16;5.00;;;2.63;;
78646;SDS011;67961;43.460;3.762;2023-03-19T15:03:42;6.20;;;2.67;;
78646;SDS011;67961;43.460;3.762;2023-03-19T15:06:09;5.20;;;2.58;;
78646;SDS011;67961;43.460;3.762;2023-03-19T15:08:37;6.72;;;2.60;;
78646;SDS011;67961;43.460;3.762;2023-03-19T15:19:30;3.65;;;2.20;;
78646;SDS011;67961;43.460;3.762;2023-03-19T15:22:03;5.68;;;2.95;;
78646;SDS011;67961;43.460;3.762;2023-03-19T15:24:29;8.18;;;2.80;;
78646;SDS011;67961;43.460;3.762;2023-03-19T15:26:55;6.88;;;2.30;;
78646;SDS011;67961;43.460;3.762;2023-03-19T15:29:33;5.65;;;2.00;;
78646;SDS011;67961;43.460;3.762;2023-03-19T15:31:58;9.40;;;2.88;;
78646;SDS011;67961;43.460;3.762;2023-03-19T15:34:26;5.35;;;2.50;;
78646;SDS011;67961;43.460;3.762;2023-03-19T15:37:13;6.15;;;1.98;;
78646;SDS011;67961;43.460;3.762;2023-03-19T15:39:47;6.82;;;2.50;;
78646;SDS011;67961;43.460;3.762;2023-03-19T15:42:15;5.63;;;3.17;;
78646;SDS011;67961;43.460;3.762;2023-03-19T15:44:46;6.18;;;2.88;;
78646;SDS011;67961;43.460;3.762;2023-03-19T15:47:43;3.97;;;2.30;;
78646;SDS011;67961;43.460;3.762;2023-03-19T15:50:13;4.35;;;2.25;;
78646;SDS011;67961;43.460;3.762;2023-03-19T15:52:43;5.18;;;2.40;;
78646;SDS011;67961;43.460;3.762;2023-03-19T15:55:12;6.18;;;3.13;;
78646;SDS011;67961;43.460;3.762;2023-03-19T15:57:39;5.45;;;2.13;;
78646;SDS011;67961;43.460;3.762;2023-03-19T16:00:07;5.43;;;2.38;;
78646;SDS011;67961;43.460;3.762;2023-03-19T16:02:34;2.88;;;1.85;;
78646;SDS011;67961;43.460;3.762;2023-03-19T16:05:03;5.15;;;2.50;;
78646;SDS011;67961;43.460;3.762;2023-03-19T16:09:55;4.18;;;2.30;;
78646;SDS011;67961;43.460;3.762;2023-03-19T16:15:36;6.65;;;2.65;;
78646;SDS011;67961;43.460;3.762;2023-03-19T16:20:46;4.85;;;3.28;;
78646;SDS011;67961;43.460;3.762;2023-03-19T16:23:22;5.55;;;2.28;;
78646;SDS011;67961;43.460;3.762;2023-03-19T16:25:55;3.08;;;1.98;;
78646;SDS011;67961;43.460;3.762;2023-03-19T16:28:21;4.85;;;2.22;;
78646;SDS011;67961;43.460;3.762;2023-03-19T16:30:48;5.10;;;2.30;;
78646;SDS011;67961;43.460;3.762;2023-03-19T16:33:15;4.03;;;2.05;;
78646;SDS011;67961;43.460;3.762;2023-03-19T16:35:41;5.57;;;2.40;;
78646;SDS011;67961;43.460;3.762;2023-03-19T16:38:21;3.25;;;2.10;;
78646;SDS011;67961;43.460;3.762;2023-03-19T16:40:49;4.55;;;2.10;;
78646;SDS011;67961;43.460;3.762;2023-03-19T16:43:31;3.80;;;2.30;;
78646;SDS011;67961;43.460;3.762;2023-03-19T16:46:04;4.50;;;2.42;;
78646;SDS011;67961;43.460;3.762;2023-03-19T16:48:34;4.38;;;2.55;;
78646;SDS011;67961;43.460;3.762;2023-03-19T16:51:00;6.28;;;2.30;;
78646;SDS011;67961;43.460;3.762;2023-03-19T16:53:28;7.50;;;2.58;;
78646;SDS011;67961;43.460;3.762;2023-03-19T16:55:56;4.15;;;2.35;;
78646;SDS011;67961;43.460;3.762;2023-03-19T17:01:06;6.95;;;2.55;;
78646;SDS011;67961;43.460;3.762;2023-03-19T17:03:43;6.65;;;3.20;;
78646;SDS011;67961;43.460;3.762;2023-03-19T17:06:13;5.65;;;3.08;;
78646;SDS011;67961;43.460;3.762;2023-03-19T17:08:40;7.55;;;2.50;;
78646;SDS011;67961;43.460;3.762;2023-03-19T17:11:07;3.05;;;2.00;;
78646;SDS011;67961;43.460;3.762;2023-03-19T17:13:40;6.78;;;2.75;;
78646;SDS011;67961;43.460;3.762;2023-03-19T17:16:06;8.13;;;2.92;;
78646;SDS011;67961;43.460;3.762;2023-03-19T17:18:33;4.78;;;2.20;;
78646;SDS011;67961;43.460;3.762;2023-03-19T17:23:30;5.43;;;2.35;;
78646;SDS011;67961;43.460;3.762;2023-03-19T17:25:56;4.97;;;2.70;;
78646;SDS011;67961;43.460;3.762;2023-03-19T17:28:22;6.18;;;3.33;;
78646;SDS011;67961;43.460;3.762;2023-03-19T17:30:48;6.82;;;3.20;;
78646;SDS011;67961;43.460;3.762;2023-03-19T17:33:24;6.68;;;3.13;;
78646;SDS011;67961;43.460;3.762;2023-03-19T17:35:52;6.53;;;3.58;;